createdAt,value
2018-05-27T00:00:52.153Z,68.2326
2018-05-27T00:01:57.581Z,68.4836
2018-05-27T00:03:03.025Z,68.4836
2018-05-27T00:04:08.304Z,68.7373
2018-05-27T00:05:13.751Z,68.7373
2018-05-27T00:06:18.341Z,68.7373
2018-05-27T00:07:24.024Z,68.9883
2018-05-27T00:08:29.174Z,68.9883
2018-05-27T00:09:34.681Z,69.2393
2018-05-27T00:10:39.843Z,68.7373
2018-05-27T00:11:45.278Z,69.2393
2018-05-27T00:12:50.402Z,68.9883
2018-05-27T00:13:55.658Z,69.4903
2018-05-27T00:15:01.139Z,69.9924
2018-05-27T00:16:06.361Z,69.9924
2018-05-27T00:17:11.227Z,70.6635
2018-05-27T00:18:16.672Z,69.7414
2018-05-27T00:19:22.459Z,70.1615
2018-05-27T00:20:27.923Z,70.4125
2018-05-27T00:21:33.215Z,71.0837
2018-05-27T00:22:38.105Z,69.9924
2018-05-27T00:23:43.268Z,70.2434
2018-05-27T00:24:48.383Z,70.4125
2018-05-27T00:25:53.241Z,70.2434
2018-05-27T00:26:57.854Z,71.0837
2018-05-27T00:28:03.640Z,70.6635
2018-05-27T00:29:08.500Z,70.6635
2018-05-27T00:30:13.933Z,70.4125
2018-05-27T00:31:19.344Z,70.9146
2018-05-27T00:32:23.659Z,71.0837
2018-05-27T00:33:29.263Z,71.0837
2018-05-27T00:34:34.122Z,71.3347
2018-05-27T00:35:39.291Z,71.3347
2018-05-27T00:36:44.683Z,71.0837
2018-05-27T00:37:48.987Z,71.0837
2018-05-27T00:38:54.157Z,71.5857
2018-05-27T00:39:58.910Z,72.0878
2018-05-27T00:41:03.511Z,71.3347
2018-05-27T00:42:08.666Z,71.3347
2018-05-27T00:43:14.065Z,72.0878
2018-05-27T00:44:19.500Z,71.5857
2018-05-27T00:46:45.278Z,72.5898
2018-05-27T00:47:50.436Z,71.0837
2018-05-27T00:48:55.941Z,71.0837
2018-05-27T00:50:01.472Z,71.5857
2018-05-27T00:51:06.352Z,71.3347
2018-05-27T00:52:11.210Z,71.3347
2018-05-27T00:53:16.371Z,71.3347
2018-05-27T00:54:21.841Z,71.3347
2018-05-27T00:55:42.283Z,71.3347
2018-05-27T00:56:47.445Z,70.9146
2018-05-27T00:57:53.294Z,70.6635
2018-05-27T00:58:58.451Z,71.3347
2018-05-27T01:00:03.319Z,71.0837
2018-05-27T01:01:08.152Z,70.9146
2018-05-27T01:02:13.604Z,71.3347
2018-05-27T01:03:18.755Z,71.0837
2018-05-27T01:04:24.450Z,72.0878
2018-05-27T01:05:29.042Z,71.8367
2018-05-27T01:06:34.630Z,72.0878
2018-05-27T01:07:39.828Z,71.8367
2018-05-27T01:08:45.260Z,72.0878
2018-05-27T01:09:50.090Z,73.0945
2018-05-27T01:10:55.266Z,72.3388
2018-05-27T01:12:00.147Z,72.3388
2018-05-27T01:13:05.552Z,73.0945
2018-05-27T01:14:10.711Z,73.0945
2018-05-27T01:15:15.287Z,72.3388
2018-05-27T01:16:21.177Z,72.8435
2018-05-27T01:17:26.624Z,73.0945
2018-05-27T01:18:32.223Z,72.5898
2018-05-27T01:19:37.406Z,72.5898
2018-05-27T01:20:42.857Z,72.3388
2018-05-27T01:21:48.661Z,72.3388
2018-05-27T01:22:53.833Z,72.5898
2018-05-27T01:23:59.266Z,72.8435
2018-05-27T01:25:04.114Z,73.3455
2018-05-27T01:26:09.269Z,72.5898
2018-05-27T01:27:14.427Z,73.3455
2018-05-27T01:28:19.931Z,73.0945
2018-05-27T01:29:25.376Z,74.0166
2018-05-27T01:30:30.820Z,73.5146
2018-05-27T01:31:35.991Z,74.2677
2018-05-27T01:32:41.424Z,73.5146
2018-05-27T01:33:47.259Z,74.0166
2018-05-27T01:34:52.419Z,74.2677
2018-05-27T01:35:57.570Z,74.7723
2018-05-27T01:37:02.704Z,74.0166
2018-05-27T01:38:07.593Z,73.3455
2018-05-27T01:39:13.029Z,73.5146
2018-05-27T01:40:18.848Z,74.5187
2018-05-27T01:41:23.434Z,75.5254
2018-05-27T01:42:28.989Z,75.2744
2018-05-27T01:43:34.427Z,75.0234
2018-05-27T01:44:39.005Z,74.2677
2018-05-27T01:45:44.041Z,75.0234
2018-05-27T01:46:48.898Z,75.0234
2018-05-27T01:47:53.801Z,75.0234
2018-05-27T01:48:59.286Z,75.0234
2018-05-27T01:50:04.721Z,75.2744
2018-05-27T01:51:09.585Z,75.2744
2018-05-27T01:52:15.007Z,75.2744
2018-05-27T01:53:20.436Z,75.2744
2018-05-27T01:54:25.651Z,74.5187
2018-05-27T01:55:30.831Z,74.2677
2018-05-27T01:56:35.978Z,74.5187
2018-05-27T01:57:41.303Z,75.7764
2018-05-27T01:58:46.463Z,75.7764
2018-05-27T01:59:51.607Z,75.2744
2018-05-27T02:00:57.539Z,75.2744
2018-05-27T02:02:02.723Z,75.0234
2018-05-27T02:03:08.159Z,75.5254
2018-05-27T02:04:13.653Z,75.5254
2018-05-27T02:05:18.520Z,75.2744
2018-05-27T02:06:23.395Z,76.2811
2018-05-27T02:07:29.445Z,75.7764
2018-05-27T02:08:34.909Z,76.2811
2018-05-27T02:09:40.030Z,75.5254
2018-05-27T02:10:45.196Z,76.4476
2018-05-27T02:11:50.629Z,75.7764
2018-05-27T02:12:56.029Z,76.1966
2018-05-27T02:14:00.917Z,76.0275
2018-05-27T02:15:06.081Z,75.5254
2018-05-27T02:16:11.763Z,75.7764
2018-05-27T02:17:16.644Z,76.0275
2018-05-27T02:18:21.787Z,75.0234
2018-05-27T02:19:26.927Z,76.0275
2018-05-27T02:20:32.363Z,76.0275
2018-05-27T02:21:37.861Z,76.0275
2018-05-27T02:22:42.930Z,76.6986
2018-05-27T02:23:48.397Z,75.7764
2018-05-27T02:24:53.902Z,75.5254
2018-05-27T02:25:59.351Z,76.0275
2018-05-27T02:27:04.228Z,75.7764
2018-05-27T02:28:09.346Z,75.7764
2018-05-27T02:29:14.504Z,76.4476
2018-05-27T02:30:19.374Z,76.0275
2018-05-27T02:31:24.918Z,75.7764
2018-05-27T02:32:30.072Z,75.5254
2018-05-27T02:33:35.902Z,75.0234
2018-05-27T02:34:41.060Z,75.2744
2018-05-27T02:35:46.213Z,76.0275
2018-05-27T02:36:51.900Z,75.7764
2018-05-27T02:37:57.059Z,76.0275
2018-05-27T02:39:01.660Z,76.0275
2018-05-27T02:40:06.707Z,76.0275
2018-05-27T02:41:11.569Z,75.5254
2018-05-27T02:42:16.999Z,76.4476
2018-05-27T02:43:22.836Z,76.2811
2018-05-27T02:44:28.281Z,76.2811
2018-05-27T02:45:33.830Z,75.7764
2018-05-27T02:46:38.423Z,76.0275
2018-05-27T02:47:43.853Z,76.6986
2018-05-27T02:48:49.541Z,76.2811
2018-05-27T02:49:54.972Z,76.6986
2018-05-27T02:51:00.133Z,76.0275
2018-05-27T02:52:05.637Z,76.2811
2018-05-27T02:53:10.526Z,76.2811
2018-05-27T02:54:15.956Z,76.9523
2018-05-27T02:55:21.640Z,76.2811
2018-05-27T02:56:26.782Z,76.9523
2018-05-27T02:57:32.501Z,77.2033
2018-05-27T02:58:37.665Z,77.7053
2018-05-27T02:59:42.828Z,76.9523
2018-05-27T03:00:47.837Z,78.21
2018-05-27T03:01:53.269Z,77.7053
2018-05-27T03:02:58.716Z,77.9563
2018-05-27T03:04:04.275Z,77.2033
2018-05-27T03:05:09.422Z,77.9563
2018-05-27T03:06:14.880Z,76.9523
2018-05-27T03:07:20.286Z,77.2033
2018-05-27T03:08:24.895Z,76.6986
2018-05-27T03:09:30.413Z,76.9523
2018-05-27T03:10:35.312Z,76.4476
2018-05-27T03:11:40.767Z,76.2811
2018-05-27T03:12:46.198Z,76.9523
2018-05-27T03:13:51.068Z,76.4476
2018-05-27T03:14:56.514Z,76.2811
2018-05-27T03:16:02.196Z,75.5254
2018-05-27T03:17:07.082Z,76.2811
2018-05-27T03:18:12.513Z,76.0275
2018-05-27T03:19:18.247Z,75.7764
2018-05-27T03:20:23.679Z,75.7764
2018-05-27T03:21:29.072Z,76.2811
2018-05-27T03:22:34.502Z,76.0275
2018-05-27T03:23:39.947Z,76.5321
2018-05-27T03:24:45.422Z,76.0275
2018-05-27T03:25:50.582Z,76.0275
2018-05-27T03:26:56.036Z,75.7764
2018-05-27T03:28:01.437Z,76.2811
2018-05-27T03:29:06.625Z,76.5321
2018-05-27T03:30:11.785Z,76.6986
2018-05-27T03:31:17.312Z,76.5321
2018-05-27T03:32:22.465Z,76.5321
2018-05-27T03:33:27.974Z,76.9523
2018-05-27T03:34:33.141Z,76.5321
2018-05-27T03:35:38.018Z,76.0275
2018-05-27T03:36:43.432Z,76.0275
2018-05-27T03:37:48.302Z,75.7764
2018-05-27T03:38:53.459Z,76.5321
2018-05-27T03:39:59.197Z,76.0275
2018-05-27T03:41:04.066Z,75.5254
2018-05-27T03:42:09.516Z,75.7764
2018-05-27T03:43:15.088Z,76.0275
2018-05-27T03:44:20.253Z,76.0275
2018-05-27T03:45:40.518Z,74.5187
2018-05-27T03:46:45.710Z,74.7723
2018-05-27T03:47:50.858Z,74.5187
2018-05-27T03:48:56.369Z,75.2744
2018-05-27T03:50:01.531Z,74.5187
2018-05-27T03:51:06.686Z,75.0234
2018-05-27T03:52:12.098Z,75.5254
2018-05-27T03:53:17.265Z,76.2811
2018-05-27T03:54:21.872Z,75.5254
2018-05-27T03:55:27.631Z,74.5187
2018-05-27T03:56:32.810Z,75.2744
2018-05-27T03:57:37.865Z,75.7764
2018-05-27T03:58:43.018Z,76.0275
2018-05-27T03:59:48.449Z,75.7764
2018-05-27T04:00:54.005Z,75.0234
2018-05-27T04:01:59.158Z,75.0234
2018-05-27T04:03:04.035Z,75.2744
2018-05-27T04:04:09.920Z,75.0234
2018-05-27T04:05:14.804Z,75.7764
2018-05-27T04:06:20.231Z,75.5254
2018-05-27T04:07:25.625Z,75.2744
2018-05-27T04:08:31.056Z,75.7764
2018-05-27T04:09:36.741Z,74.5187
2018-05-27T04:10:41.615Z,74.7723
2018-05-27T04:11:46.793Z,74.5187
2018-05-27T04:12:52.474Z,75.2744
2018-05-27T04:13:57.937Z,74.7723
2018-05-27T04:15:03.093Z,75.0234
2018-05-27T04:16:08.773Z,75.5254
2018-05-27T04:17:14.205Z,75.0234
2018-05-27T04:18:19.644Z,75.5254
2018-05-27T04:19:25.055Z,75.2744
2018-05-27T04:20:30.501Z,75.7764
2018-05-27T04:21:36.094Z,74.5187
2018-05-27T04:22:41.249Z,75.7764
2018-05-27T04:23:46.116Z,76.0275
2018-05-27T04:24:51.668Z,75.5254
2018-05-27T04:25:56.835Z,75.5254
2018-05-27T04:27:01.426Z,76.0275
2018-05-27T04:28:07.000Z,75.0234
2018-05-27T04:29:12.456Z,76.5321
2018-05-27T04:30:17.650Z,75.5254
2018-05-27T04:31:22.927Z,75.2744
2018-05-27T04:32:27.841Z,75.2744
2018-05-27T04:33:33.396Z,76.5321
2018-05-27T04:34:38.264Z,76.0275
2018-05-27T04:35:43.442Z,75.7764
2018-05-27T04:36:48.838Z,75.7764
2018-05-27T04:37:53.714Z,76.7831
2018-05-27T04:38:58.873Z,76.5321
2018-05-27T04:40:03.333Z,76.5321
2018-05-27T04:41:08.491Z,76.0275
2018-05-27T04:42:13.359Z,76.0275
2018-05-27T04:43:18.512Z,76.9523
2018-05-27T04:44:23.394Z,76.5321
2018-05-27T04:45:28.894Z,76.6986
2018-05-27T04:46:34.331Z,76.6986
2018-05-27T04:47:39.198Z,76.5321
2018-05-27T04:48:44.322Z,76.9523
2018-05-27T04:49:49.501Z,76.5321
2018-05-27T04:50:54.936Z,77.2033
2018-05-27T04:52:00.716Z,77.7053
2018-05-27T04:53:06.159Z,77.2033
2018-05-27T04:54:11.606Z,77.9563
2018-05-27T04:55:17.310Z,77.4543
2018-05-27T04:56:22.740Z,78.21
2018-05-27T04:57:27.974Z,77.7053
2018-05-27T04:58:32.887Z,77.7053
2018-05-27T04:59:37.755Z,77.2033
2018-05-27T05:00:43.022Z,77.4543
2018-05-27T05:01:48.456Z,77.2033
2018-05-27T05:02:53.629Z,77.9563
2018-05-27T05:03:58.742Z,76.6986
2018-05-27T05:05:03.631Z,76.5321
2018-05-27T05:06:08.796Z,76.5321
2018-05-27T05:07:13.911Z,77.4543
2018-05-27T05:08:19.071Z,76.5321
2018-05-27T05:09:24.589Z,76.2811
2018-05-27T05:10:30.886Z,76.6986
2018-05-27T05:11:36.035Z,76.9523
2018-05-27T05:12:41.589Z,76.5321
2018-05-27T05:13:47.042Z,76.5321
2018-05-27T05:14:52.337Z,76.5321
2018-05-27T05:15:58.232Z,76.9523
2018-05-27T05:17:02.823Z,75.5254
2018-05-27T05:18:07.696Z,76.5321
2018-05-27T05:19:13.685Z,76.0275
2018-05-27T05:20:19.118Z,76.5321
2018-05-27T05:21:24.283Z,75.5254
2018-05-27T05:22:44.772Z,75.2744
2018-05-27T05:23:49.932Z,76.0275
2018-05-27T05:24:55.527Z,76.6986
2018-05-27T05:26:00.991Z,75.5254
2018-05-27T05:27:05.889Z,76.2811
2018-05-27T05:28:11.318Z,75.5254
2018-05-27T05:29:15.898Z,75.7764
2018-05-27T05:30:21.332Z,76.0275
2018-05-27T05:31:26.457Z,75.5254
2018-05-27T05:32:31.633Z,75.7764
2018-05-27T05:33:36.793Z,75.2744
2018-05-27T05:34:42.233Z,75.0234
2018-05-27T05:35:47.676Z,75.2744
2018-05-27T05:36:52.918Z,75.5254
2018-05-27T05:37:58.356Z,75.7764
2018-05-27T05:39:03.511Z,75.5254
2018-05-27T05:40:09.202Z,75.0234
2018-05-27T05:41:14.348Z,75.2744
2018-05-27T05:42:19.791Z,75.5254
2018-05-27T05:43:24.664Z,74.2677
2018-05-27T05:44:29.819Z,75.5254
2018-05-27T05:45:34.759Z,74.5187
2018-05-27T05:46:39.934Z,74.7723
2018-05-27T05:47:45.083Z,74.0166
2018-05-27T05:48:50.932Z,74.2677
2018-05-27T05:49:55.796Z,74.0166
2018-05-27T05:51:00.375Z,75.0234
2018-05-27T05:52:05.205Z,74.5187
2018-05-27T05:53:10.360Z,74.7723
2018-05-27T05:54:15.529Z,74.7723
2018-05-27T05:55:21.285Z,75.2744
2018-05-27T05:56:26.144Z,74.5187
2018-05-27T05:57:31.549Z,75.0234
2018-05-27T05:58:36.997Z,74.2677
2018-05-27T05:59:41.885Z,74.2677
2018-05-27T06:00:47.555Z,74.7723
2018-05-27T06:01:52.988Z,74.5187
2018-05-27T06:02:57.857Z,74.2677
2018-05-27T06:04:02.694Z,74.0166
2018-05-27T06:05:07.868Z,74.0166
2018-05-27T06:06:13.300Z,73.0945
2018-05-27T06:07:19.016Z,74.0166
2018-05-27T06:08:24.460Z,73.3455
2018-05-27T06:09:30.281Z,73.2609
2018-05-27T06:10:35.729Z,74.0166
2018-05-27T06:11:40.355Z,74.0166
2018-05-27T06:12:45.901Z,73.3455
2018-05-27T06:13:50.788Z,73.3455
2018-05-27T06:14:55.653Z,73.3455
2018-05-27T06:16:00.908Z,74.0166
2018-05-27T06:17:06.062Z,73.0945
2018-05-27T06:18:11.217Z,72.8435
2018-05-27T06:19:17.048Z,72.3388
2018-05-27T06:20:21.916Z,72.8435
2018-05-27T06:21:26.817Z,71.8367
2018-05-27T06:22:31.966Z,72.3388
2018-05-27T06:23:37.123Z,72.0878
2018-05-27T06:24:42.276Z,72.8435
2018-05-27T06:25:47.905Z,72.3388
2018-05-27T06:26:53.429Z,72.0878
2018-05-27T06:27:59.114Z,73.2609
2018-05-27T06:29:04.263Z,72.5898
2018-05-27T06:30:09.712Z,72.5898
2018-05-27T06:31:15.108Z,72.8435
2018-05-27T06:32:19.981Z,73.5146
2018-05-27T06:33:25.866Z,73.3455
2018-05-27T06:34:31.303Z,73.5146
2018-05-27T06:35:36.165Z,72.8435
2018-05-27T06:36:41.720Z,73.3455
2018-05-27T06:37:46.876Z,72.8435
2018-05-27T06:38:52.063Z,73.2609
2018-05-27T06:39:57.601Z,73.2609
2018-05-27T06:41:02.766Z,73.5146
2018-05-27T06:42:08.324Z,73.5146
2018-05-27T06:43:13.717Z,73.7656
2018-05-27T06:44:18.894Z,73.5146
2018-05-27T06:45:24.054Z,73.7656
2018-05-27T06:46:44.484Z,74.2677
2018-05-27T06:47:49.628Z,74.5187
2018-05-27T06:48:54.755Z,74.0166
2018-05-27T06:49:59.635Z,75.0234
2018-05-27T06:51:04.244Z,74.0166
2018-05-27T06:52:09.654Z,74.7723
2018-05-27T06:53:14.808Z,73.5146
2018-05-27T06:54:20.250Z,73.7656
2018-05-27T06:55:24.800Z,73.5146
2018-05-27T06:56:29.975Z,74.0166
2018-05-27T06:57:35.292Z,73.5146
2018-05-27T06:58:40.449Z,72.5898
2018-05-27T06:59:45.908Z,73.5146
2018-05-27T07:00:51.693Z,73.7656
2018-05-27T07:01:56.581Z,74.2677
2018-05-27T07:03:01.733Z,73.7656
2018-05-27T07:04:06.780Z,74.5187
2018-05-27T07:05:11.947Z,74.0166
2018-05-27T07:06:17.389Z,73.7656
2018-05-27T07:07:23.068Z,74.0166
2018-05-27T07:08:28.502Z,74.5187
2018-05-27T07:09:33.590Z,74.5187
2018-05-27T07:10:39.021Z,74.2677
2018-05-27T07:11:44.578Z,74.0166
2018-05-27T07:12:50.076Z,73.2609
2018-05-27T07:13:55.514Z,73.7656
2018-05-27T07:15:00.943Z,74.2677
2018-05-27T07:16:06.258Z,73.5146
2018-05-27T07:17:11.848Z,74.7723
2018-05-27T07:18:17.286Z,73.7656
2018-05-27T07:19:22.971Z,73.7656
2018-05-27T07:20:28.142Z,73.7656
2018-05-27T07:21:32.449Z,73.7656
2018-05-27T07:22:37.882Z,73.5146
2018-05-27T07:23:43.052Z,73.7656
2018-05-27T07:24:48.163Z,74.7723
2018-05-27T07:25:53.336Z,73.2609
2018-05-27T07:26:58.776Z,73.7656
2018-05-27T07:28:03.612Z,74.5187
2018-05-27T07:29:08.508Z,74.0166
2018-05-27T07:30:13.387Z,73.7656
2018-05-27T07:31:18.795Z,73.7656
2018-05-27T07:32:23.387Z,74.2677
2018-05-27T07:33:29.041Z,74.5187
2018-05-27T07:34:34.395Z,74.5187
2018-05-27T07:35:40.004Z,74.7723
2018-05-27T07:36:45.795Z,75.0234
2018-05-27T07:37:51.228Z,74.7723
2018-05-27T07:38:56.658Z,74.5187
2018-05-27T07:40:01.793Z,75.4409
2018-05-27T07:41:06.667Z,75.1898
2018-05-27T07:42:12.102Z,75.6945
2018-05-27T07:43:17.708Z,75.1898
2018-05-27T07:44:22.575Z,75.1898
2018-05-27T07:45:42.489Z,75.9455
2018-05-27T07:46:47.636Z,74.5187
2018-05-27T07:47:53.071Z,75.1898
2018-05-27T07:48:58.975Z,75.6945
2018-05-27T07:50:04.126Z,75.4409
2018-05-27T07:51:09.018Z,75.0234
2018-05-27T07:52:14.413Z,75.4409
2018-05-27T07:53:19.008Z,74.7723
2018-05-27T07:55:44.882Z,75.9455
2018-05-27T07:56:50.315Z,74.7723
2018-05-27T07:57:56.134Z,75.6945
2018-05-27T07:59:01.584Z,75.9455
2018-05-27T08:00:06.177Z,75.6945
2018-05-27T08:01:11.674Z,75.6945
2018-05-27T08:02:17.107Z,76.4476
2018-05-27T08:03:21.990Z,75.4409
2018-05-27T08:04:26.725Z,76.1966
2018-05-27T08:05:31.632Z,75.9455
2018-05-27T08:06:37.041Z,75.4409
2018-05-27T08:07:42.476Z,75.9455
2018-05-27T08:08:47.059Z,75.6945
2018-05-27T08:09:52.856Z,76.9523
2018-05-27T08:10:58.011Z,77.3698
2018-05-27T08:12:03.183Z,76.4476
2018-05-27T08:13:08.913Z,76.1966
2018-05-27T08:14:14.360Z,76.4476
2018-05-27T08:15:19.818Z,75.9455
2018-05-27T08:16:25.239Z,76.1966
2018-05-27T08:17:30.118Z,76.4476
2018-05-27T08:18:36.000Z,76.8677
2018-05-27T08:19:41.585Z,76.6986
2018-05-27T08:20:46.231Z,76.4476
2018-05-27T08:21:51.175Z,76.4476
2018-05-27T08:22:56.060Z,76.4476
2018-05-27T08:24:00.926Z,76.4476
2018-05-27T08:25:06.268Z,76.6167
2018-05-27T08:26:11.266Z,76.1966
2018-05-27T08:27:16.441Z,76.8677
2018-05-27T08:28:21.869Z,76.6167
2018-05-27T08:29:26.230Z,76.363
2018-05-27T08:30:32.008Z,77.3698
2018-05-27T08:31:37.441Z,77.1187
2018-05-27T08:32:42.594Z,77.1187
2018-05-27T08:33:48.001Z,77.6208
2018-05-27T08:34:53.452Z,76.6167
2018-05-27T08:35:58.883Z,76.6167
2018-05-27T08:37:04.803Z,77.8744
2018-05-27T08:38:10.242Z,77.3698
2018-05-27T08:39:15.118Z,77.6208
2018-05-27T08:40:20.528Z,77.3698
2018-05-27T08:41:25.687Z,77.1187
2018-05-27T08:42:30.818Z,77.1187
2018-05-27T08:43:35.816Z,77.6208
2018-05-27T08:44:41.254Z,76.8677
2018-05-27T08:45:46.360Z,76.8677
2018-05-27T08:46:50.974Z,77.1187
2018-05-27T08:47:55.855Z,76.363
2018-05-27T08:49:01.170Z,76.8677
2018-05-27T08:50:06.383Z,77.1187
2018-05-27T08:51:11.533Z,76.8677
2018-05-27T08:52:17.381Z,77.6208
2018-05-27T08:53:22.607Z,77.6208
2018-05-27T08:54:27.870Z,78.1255
2018-05-27T08:55:32.740Z,76.6167
2018-05-27T08:56:37.893Z,76.8677
2018-05-27T08:57:43.451Z,76.8677
2018-05-27T08:58:48.887Z,77.3698
2018-05-27T08:59:54.041Z,76.8677
2018-05-27T09:00:59.455Z,76.8677
2018-05-27T09:02:04.889Z,77.3698
2018-05-27T09:03:09.506Z,77.3698
2018-05-27T09:04:15.192Z,77.1187
2018-05-27T09:05:20.347Z,77.3698
2018-05-27T09:06:40.689Z,77.1187
2018-05-27T09:07:45.566Z,77.1187
2018-05-27T09:08:51.135Z,77.3698
2018-05-27T09:09:56.425Z,77.7899
2018-05-27T09:11:01.316Z,78.7966
2018-05-27T09:12:05.912Z,77.3698
2018-05-27T09:13:11.055Z,78.0409
2018-05-27T09:14:16.487Z,78.5456
2018-05-27T09:15:21.579Z,78.2919
2018-05-27T09:16:27.196Z,78.2919
2018-05-27T09:17:32.653Z,77.3698
2018-05-27T09:18:37.922Z,77.7899
2018-05-27T09:19:42.796Z,77.3698
2018-05-27T09:20:48.135Z,77.5389
2018-05-27T09:21:53.975Z,77.3698
2018-05-27T09:22:58.560Z,77.2852
2018-05-27T09:24:03.998Z,77.2852
2018-05-27T09:25:09.287Z,77.2852
2018-05-27T09:26:14.194Z,77.2852
2018-05-27T09:27:19.628Z,76.8677
2018-05-27T09:28:25.040Z,76.8677
2018-05-27T09:29:30.197Z,77.1187
2018-05-27T09:30:35.478Z,76.6167
2018-05-27T09:31:40.642Z,77.0342
2018-05-27T09:32:45.242Z,76.8677
2018-05-27T09:33:50.098Z,78.0409
2018-05-27T09:34:55.269Z,78.0409
2018-05-27T09:36:00.716Z,77.5389
2018-05-27T09:37:06.148Z,77.0342
2018-05-27T09:38:11.004Z,77.0342
2018-05-27T09:39:16.374Z,77.7899
2018-05-27T09:40:21.653Z,77.5389
2018-05-27T09:41:26.798Z,77.5389
2018-05-27T09:42:32.239Z,77.5389
2018-05-27T09:43:37.683Z,78.0409
2018-05-27T09:44:42.838Z,77.5389
2018-05-27T09:45:48.007Z,77.7899
2018-05-27T09:46:53.442Z,78.2919
2018-05-27T09:47:58.596Z,78.2919
2018-05-27T09:49:03.998Z,79.0476
2018-05-27T09:50:09.171Z,78.0409
2018-05-27T09:51:14.404Z,79.0476
2018-05-27T09:52:19.935Z,78.5456
2018-05-27T09:53:25.116Z,78.7966
2018-05-27T09:54:30.386Z,79.2986
2018-05-27T09:55:35.543Z,78.7966
2018-05-27T09:56:40.701Z,79.2986
2018-05-27T09:57:46.107Z,80.2208
2018-05-27T09:58:51.292Z,78.7966
2018-05-27T09:59:56.913Z,79.2986
2018-05-27T10:01:02.530Z,78.5456
2018-05-27T10:02:07.137Z,78.0409
2018-05-27T10:03:12.315Z,78.5456
2018-05-27T10:04:17.536Z,78.5456
2018-05-27T10:05:22.980Z,79.2986
2018-05-27T10:06:28.723Z,78.0409
2018-05-27T10:07:34.169Z,78.7966
2018-05-27T10:08:39.072Z,78.5456
2018-05-27T10:09:44.581Z,78.2919
2018-05-27T10:10:50.009Z,78.7966
2018-05-27T10:11:55.166Z,77.7899
2018-05-27T10:13:00.949Z,78.7966
2018-05-27T10:14:06.102Z,79.0476
2018-05-27T10:15:10.401Z,78.2919
2018-05-27T10:16:16.332Z,78.0409
2018-05-27T10:17:21.765Z,78.0409
2018-05-27T10:18:27.372Z,78.0409
2018-05-27T10:19:32.823Z,78.5456
2018-05-27T10:20:37.992Z,77.5389
2018-05-27T10:21:43.676Z,78.5456
2018-05-27T10:22:47.991Z,77.7899
2018-05-27T10:23:53.146Z,78.7966
2018-05-27T10:24:58.806Z,78.7966
2018-05-27T10:26:04.879Z,79.2986
2018-05-27T10:27:10.618Z,78.2919
2018-05-27T10:28:16.172Z,79.4678
2018-05-27T10:29:21.325Z,79.0476
2018-05-27T10:30:41.488Z,79.4678
2018-05-27T10:31:46.645Z,79.9698
2018-05-27T10:32:52.079Z,79.2141
2018-05-27T10:33:57.376Z,79.7188
2018-05-27T10:35:02.247Z,79.4678
2018-05-27T10:36:07.393Z,79.4678
2018-05-27T10:37:12.802Z,79.4678
2018-05-27T10:38:18.238Z,79.2141
2018-05-27T10:39:23.671Z,79.9698
2018-05-27T10:40:29.673Z,79.2141
2018-05-27T10:41:34.831Z,78.5456
2018-05-27T10:42:40.304Z,78.7966
2018-05-27T10:43:44.910Z,79.9698
2018-05-27T10:44:49.782Z,79.9698
2018-05-27T10:45:54.637Z,79.2141
2018-05-27T10:46:59.534Z,79.7188
2018-05-27T10:48:04.408Z,79.7188
2018-05-27T10:49:10.093Z,79.7188
2018-05-27T10:50:15.244Z,79.9698
2018-05-27T10:51:20.116Z,80.2208
2018-05-27T10:52:25.528Z,80.7255
2018-05-27T10:53:30.965Z,80.9765
2018-05-27T10:54:36.362Z,80.7255
2018-05-27T10:55:41.521Z,80.2208
2018-05-27T10:56:46.673Z,80.2208
2018-05-27T10:57:52.354Z,79.7188
2018-05-27T10:58:57.237Z,81.2275
2018-05-27T11:00:02.362Z,81.4812
2018-05-27T11:01:07.489Z,81.4812
2018-05-27T11:02:12.924Z,82.1523
2018-05-27T11:03:18.097Z,81.4812
2018-05-27T11:04:23.595Z,81.4812
2018-05-27T11:05:28.216Z,81.7322
2018-05-27T11:06:33.763Z,82.1523
2018-05-27T11:07:39.207Z,81.9832
2018-05-27T11:08:44.364Z,81.9013
2018-05-27T11:09:49.487Z,83.5792
2018-05-27T11:10:54.921Z,82.4034
2018-05-27T11:12:00.354Z,83.0745
2018-05-27T11:13:05.351Z,82.4034
2018-05-27T11:14:10.509Z,82.8235
2018-05-27T11:15:15.371Z,82.6544
2018-05-27T11:16:21.052Z,82.8235
2018-05-27T11:17:26.214Z,83.5792
2018-05-27T11:18:32.007Z,83.0745
2018-05-27T11:19:37.443Z,83.5792
2018-05-27T11:20:43.026Z,83.0745
2018-05-27T11:21:48.507Z,84.0812
2018-05-27T11:22:53.366Z,83.8302
2018-05-27T11:23:58.256Z,84.3323
2018-05-27T11:25:03.692Z,83.8302
2018-05-27T11:26:08.837Z,85.088
2018-05-27T11:27:13.993Z,84.5859
2018-05-27T11:28:19.500Z,85.5081
2018-05-27T11:29:24.365Z,86.0128
2018-05-27T11:30:30.307Z,85.7591
2018-05-27T11:31:35.175Z,85.088
2018-05-27T11:32:40.606Z,85.7591
2018-05-27T11:33:46.307Z,86.0128
2018-05-27T11:34:51.493Z,86.0128
2018-05-27T11:35:56.930Z,85.5081
2018-05-27T11:37:02.425Z,85.7591
2018-05-27T11:38:07.304Z,85.2571
2018-05-27T11:39:12.453Z,85.0034
2018-05-27T11:40:18.288Z,86.0128
2018-05-27T11:41:23.169Z,85.5081
2018-05-27T11:42:28.968Z,86.0128
2018-05-27T11:43:34.168Z,86.0128
2018-05-27T11:44:39.623Z,86.2638
2018-05-27T11:45:45.412Z,85.5081
2018-05-27T11:46:50.598Z,86.2638
2018-05-27T11:47:55.472Z,86.2638
2018-05-27T11:49:00.969Z,86.5148
2018-05-27T11:50:05.565Z,86.9349
2018-05-27T11:51:10.715Z,85.5081
2018-05-27T11:52:16.132Z,86.5148
2018-05-27T11:53:21.005Z,86.2638
2018-05-27T11:54:26.512Z,86.9349
2018-05-27T11:55:31.954Z,86.2638
2018-05-27T11:56:37.387Z,86.0128
2018-05-27T11:57:42.797Z,86.0128
2018-05-27T11:58:48.229Z,85.7591
2018-05-27T11:59:53.661Z,86.5148
2018-05-27T12:00:59.091Z,86.2638
2018-05-27T12:02:04.410Z,86.2638
2018-05-27T12:03:09.695Z,86.5148
2018-05-27T12:04:14.984Z,87.6906
2018-05-27T12:05:20.414Z,86.6839
2018-05-27T12:06:40.484Z,86.9349
2018-05-27T12:07:45.920Z,87.186
2018-05-27T12:08:51.364Z,87.4396
2018-05-27T12:09:56.589Z,87.8598
2018-05-27T12:11:02.099Z,87.186
2018-05-27T12:12:06.720Z,87.186
2018-05-27T12:13:12.227Z,87.6906
2018-05-27T12:14:16.851Z,87.8598
2018-05-27T12:15:22.013Z,87.8598
2018-05-27T12:16:27.250Z,87.6906
2018-05-27T12:17:33.109Z,88.3618
2018-05-27T12:18:39.043Z,87.8598
2018-05-27T12:19:44.196Z,87.8598
2018-05-27T12:20:49.651Z,89.1175
2018-05-27T12:21:55.370Z,87.8598
2018-05-27T12:23:00.806Z,89.1175
2018-05-27T12:24:05.785Z,88.8665
2018-05-27T12:25:11.136Z,89.3685
2018-05-27T12:26:16.014Z,89.1175
2018-05-27T12:27:21.446Z,90.1242
2018-05-27T12:28:41.507Z,89.8732
2018-05-27T12:29:47.443Z,89.8732
2018-05-27T12:30:53.425Z,90.1242
2018-05-27T12:31:59.061Z,90.3779
2018-05-27T12:33:04.452Z,90.3779
2018-05-27T12:34:09.586Z,89.8732
2018-05-27T12:35:15.040Z,90.6289
2018-05-27T12:36:20.201Z,90.1242
2018-05-27T12:37:25.788Z,90.1242
2018-05-27T12:38:31.210Z,90.6289
2018-05-27T12:39:36.355Z,90.1242
2018-05-27T12:40:41.519Z,90.3779
2018-05-27T12:41:46.949Z,90.6289
2018-05-27T12:42:52.665Z,90.3779
2018-05-27T12:43:57.886Z,90.8826
2018-05-27T12:45:02.483Z,90.1242
2018-05-27T12:46:07.823Z,90.3779
2018-05-27T12:47:13.273Z,90.3779
2018-05-27T12:48:18.709Z,90.3779
2018-05-27T12:49:24.398Z,90.8826
2018-05-27T12:50:29.310Z,91.3001
2018-05-27T12:51:35.097Z,91.8047
2018-05-27T12:52:40.004Z,91.049
2018-05-27T12:53:44.623Z,90.3779
2018-05-27T12:54:50.334Z,90.1242
2018-05-27T12:55:55.213Z,91.1336
2018-05-27T12:57:00.568Z,90.3779
2018-05-27T12:58:05.915Z,91.3001
2018-05-27T12:59:10.787Z,91.8047
2018-05-27T13:00:16.215Z,91.5537
2018-05-27T13:01:21.503Z,92.0558
2018-05-27T13:02:26.665Z,91.3001
2018-05-27T13:03:32.505Z,91.5537
2018-05-27T13:04:37.945Z,91.3001
2018-05-27T13:05:42.803Z,91.8047
2018-05-27T13:06:48.640Z,92.3094
2018-05-27T13:07:53.803Z,92.3094
2018-05-27T13:08:59.239Z,91.8047
2018-05-27T13:10:04.471Z,92.5604
2018-05-27T13:11:09.341Z,91.5537
2018-05-27T13:12:13.948Z,93.0651
2018-05-27T13:13:19.105Z,92.0558
2018-05-27T13:14:24.262Z,93.5698
2018-05-27T13:15:29.547Z,92.3094